sensor_id;sensor_type;location;lat;lon;timestamp;temperature;humidity
15765;DHT22;7983;50.744;7.086;2023-10-09T00:00:50;17.20;99.90
15765;DHT22;7983;50.744;7.086;2023-10-09T00:03:18;17.20;99.90
15765;DHT22;7983;50.744;7.086;2023-10-09T00:05:46;17.20;99.90
15765;DHT22;7983;50.744;7.086;2023-10-09T00:08:13;17.20;99.90
15765;DHT22;7983;50.744;7.086;2023-10-09T00:10:46;17.20;99.90
15765;DHT22;7983;50.744;7.086;2023-10-09T00:13:19;17.30;99.90
15765;DHT22;7983;50.744;7.086;2023-10-09T00:15:52;17.30;99.90
15765;DHT22;7983;50.744;7.086;2023-10-09T00:18:19;17.30;99.90
15765;DHT22;7983;50.744;7.086;2023-10-09T00:20:56;17.30;99.90
15765;DHT22;7983;50.744;7.086;2023-10-09T00:23:38;17.30;99.90
15765;DHT22;7983;50.744;7.086;2023-10-09T00:26:07;17.30;99.90
15765;DHT22;7983;50.744;7.086;2023-10-09T00:28:53;17.20;99.90
15765;DHT22;7983;50.744;7.086;2023-10-09T00:31:19;17.30;99.90
15765;DHT22;7983;50.744;7.086;2023-10-09T00:33:59;17.30;99.90
15765;DHT22;7983;50.744;7.086;2023-10-09T00:36:27;17.30;99.90
15765;DHT22;7983;50.744;7.086;2023-10-09T00:38:53;17.30;99.90
15765;DHT22;7983;50.744;7.086;2023-10-09T00:41:21;17.30;99.90
15765;DHT22;7983;50.744;7.086;2023-10-09T00:43:51;17.30;99.90
15765;DHT22;7983;50.744;7.086;2023-10-09T00:46:21;17.20;99.90
15765;DHT22;7983;50.744;7.086;2023-10-09T00:48:52;17.20;99.90
15765;DHT22;7983;50.744;7.086;2023-10-09T00:51:21;17.20;99.90
15765;DHT22;7983;50.744;7.086;2023-10-09T00:53:51;17.20;99.90
15765;DHT22;7983;50.744;7.086;2023-10-09T00:56:19;17.20;99.90
15765;DHT22;7983;50.744;7.086;2023-10-09T00:58:53;17.20;99.90
15765;DHT22;7983;50.744;7.086;2023-10-09T01:01:25;17.20;99.90
15765;DHT22;7983;50.744;7.086;2023-10-09T01:04:01;17.20;99.90
15765;DHT22;7983;50.744;7.086;2023-10-09T01:06:38;17.10;99.90
15765;DHT22;7983;50.744;7.086;2023-10-09T01:09:15;17.10;99.90
15765;DHT22;7983;50.744;7.086;2023-10-09T01:11:45;17.10;99.90
15765;DHT22;7983;50.744;7.086;2023-10-09T01:14:29;17.10;99.90
15765;DHT22;7983;50.744;7.086;2023-10-09T01:16:57;17.10;99.90
15765;DHT22;7983;50.744;7.086;2023-10-09T01:19:27;17.10;99.90
15765;DHT22;7983;50.744;7.086;2023-10-09T01:21:58;17.00;99.90
15765;DHT22;7983;50.744;7.086;2023-10-09T01:24:30;17.00;99.90
15765;DHT22;7983;50.744;7.086;2023-10-09T01:27:00;17.00;99.90
15765;DHT22;7983;50.744;7.086;2023-10-09T01:29:30;16.90;99.90
15765;DHT22;7983;50.744;7.086;2023-10-09T01:31:58;16.90;99.90
15765;DHT22;7983;50.744;7.086;2023-10-09T01:34:34;16.90;99.90
15765;DHT22;7983;50.744;7.086;2023-10-09T01:37:17;16.80;99.90
15765;DHT22;7983;50.744;7.086;2023-10-09T01:40:05;16.80;99.90
15765;DHT22;7983;50.744;7.086;2023-10-09T01:42:54;16.80;99.90
15765;DHT22;7983;50.744;7.086;2023-10-09T01:45:22;16.70;99.90
15765;DHT22;7983;50.744;7.086;2023-10-09T01:47:48;16.70;99.90
15765;DHT22;7983;50.744;7.086;2023-10-09T01:50:17;16.60;99.90
15765;DHT22;7983;50.744;7.086;2023-10-09T01:52:50;16.60;99.90
15765;DHT22;7983;50.744;7.086;2023-10-09T01:55:21;16.60;99.90
15765;DHT22;7983;50.744;7.086;2023-10-09T01:58:08;16.60;99.90
15765;DHT22;7983;50.744;7.086;2023-10-09T02:00:43;16.60;99.90
15765;DHT22;7983;50.744;7.086;2023-10-09T02:03:15;16.60;99.90
15765;DHT22;7983;50.744;7.086;2023-10-09T02:05:43;16.60;99.90
15765;DHT22;7983;50.744;7.086;2023-10-09T02:08:09;16.60;99.90
15765;DHT22;7983;50.744;7.086;2023-10-09T02:10:36;16.60;99.90
15765;DHT22;7983;50.744;7.086;2023-10-09T02:13:06;16.60;99.90
15765;DHT22;7983;50.744;7.086;2023-10-09T02:15:38;16.60;99.90
15765;DHT22;7983;50.744;7.086;2023-10-09T02:18:14;16.70;99.90
15765;DHT22;7983;50.744;7.086;2023-10-09T02:20:48;16.70;99.90
15765;DHT22;7983;50.744;7.086;2023-10-09T02:23:32;16.70;99.90
15765;DHT22;7983;50.744;7.086;2023-10-09T02:26:11;16.70;99.90
15765;DHT22;7983;50.744;7.086;2023-10-09T02:28:54;16.70;99.90
15765;DHT22;7983;50.744;7.086;2023-10-09T02:31:43;16.70;99.90
15765;DHT22;7983;50.744;7.086;2023-10-09T02:34:17;16.70;99.90
15765;DHT22;7983;50.744;7.086;2023-10-09T02:36:51;16.70;99.90
15765;DHT22;7983;50.744;7.086;2023-10-09T02:39:33;16.70;99.90
15765;DHT22;7983;50.744;7.086;2023-10-09T02:42:09;16.70;99.90
15765;DHT22;7983;50.744;7.086;2023-10-09T02:44:37;16.70;99.90
15765;DHT22;7983;50.744;7.086;2023-10-09T02:47:17;16.70;99.90
15765;DHT22;7983;50.744;7.086;2023-10-09T02:49:47;16.70;99.90
15765;DHT22;7983;50.744;7.086;2023-10-09T02:52:14;16.70;99.90
15765;DHT22;7983;50.744;7.086;2023-10-09T02:54:46;16.70;99.90
15765;DHT22;7983;50.744;7.086;2023-10-09T02:57:28;16.70;99.90
15765;DHT22;7983;50.744;7.086;2023-10-09T03:00:03;16.70;99.90
15765;DHT22;7983;50.744;7.086;2023-10-09T03:02:29;16.70;99.90
15765;DHT22;7983;50.744;7.086;2023-10-09T03:04:57;16.70;99.90
15765;DHT22;7983;50.744;7.086;2023-10-09T03:07:26;16.70;99.90
15765;DHT22;7983;50.744;7.086;2023-10-09T03:09:52;16.70;99.90
15765;DHT22;7983;50.744;7.086;2023-10-09T03:12:17;16.70;99.90
15765;DHT22;7983;50.744;7.086;2023-10-09T03:14:46;16.70;99.90
15765;DHT22;7983;50.744;7.086;2023-10-09T03:17:14;16.70;99.90
15765;DHT22;7983;50.744;7.086;2023-10-09T03:19:42;16.70;99.90
15765;DHT22;7983;50.744;7.086;2023-10-09T03:22:11;16.70;99.90
15765;DHT22;7983;50.744;7.086;2023-10-09T03:24:37;16.70;99.90
15765;DHT22;7983;50.744;7.086;2023-10-09T03:27:03;16.70;99.90
15765;DHT22;7983;50.744;7.086;2023-10-09T03:29:29;16.70;99.90
15765;DHT22;7983;50.744;7.086;2023-10-09T03:31:57;16.70;99.90
15765;DHT22;7983;50.744;7.086;2023-10-09T03:34:25;16.70;99.90
15765;DHT22;7983;50.744;7.086;2023-10-09T03:36:53;16.70;99.90
15765;DHT22;7983;50.744;7.086;2023-10-09T03:39:32;16.60;99.90
15765;DHT22;7983;50.744;7.086;2023-10-09T03:42:04;16.70;99.90
15765;DHT22;7983;50.744;7.086;2023-10-09T03:44:33;16.70;99.90
15765;DHT22;7983;50.744;7.086;2023-10-09T03:47:04;16.70;99.90
15765;DHT22;7983;50.744;7.086;2023-10-09T03:49:35;16.70;99.90
15765;DHT22;7983;50.744;7.086;2023-10-09T03:52:07;16.80;99.90
15765;DHT22;7983;50.744;7.086;2023-10-09T03:54:33;16.80;99.90
15765;DHT22;7983;50.744;7.086;2023-10-09T03:57:03;16.80;99.90
15765;DHT22;7983;50.744;7.086;2023-10-09T03:59:31;16.80;99.90
15765;DHT22;7983;50.744;7.086;2023-10-09T04:01:58;16.80;99.90
15765;DHT22;7983;50.744;7.086;2023-10-09T04:04:25;16.80;99.90
15765;DHT22;7983;50.744;7.086;2023-10-09T04:06:53;16.70;99.90
15765;DHT22;7983;50.744;7.086;2023-10-09T04:09:19;16.80;99.90
15765;DHT22;7983;50.744;7.086;2023-10-09T04:11:49;16.80;99.90
15765;DHT22;7983;50.744;7.086;2023-10-09T04:14:36;16.80;99.90
15765;DHT22;7983;50.744;7.086;2023-10-09T04:17:09;16.80;99.90
15765;DHT22;7983;50.744;7.086;2023-10-09T04:19:57;16.80;99.90
15765;DHT22;7983;50.744;7.086;2023-10-09T04:22:41;16.80;99.90
15765;DHT22;7983;50.744;7.086;2023-10-09T04:25:20;16.70;99.90
15765;DHT22;7983;50.744;7.086;2023-10-09T04:27:58;16.70;99.90
15765;DHT22;7983;50.744;7.086;2023-10-09T04:30:45;16.70;99.90
15765;DHT22;7983;50.744;7.086;2023-10-09T04:33:21;16.70;99.90
15765;DHT22;7983;50.744;7.086;2023-10-09T04:38:42;16.70;99.90
15765;DHT22;7983;50.744;7.086;2023-10-09T04:41:26;16.70;99.90
15765;DHT22;7983;50.744;7.086;2023-10-09T04:44:01;16.70;99.90
15765;DHT22;7983;50.744;7.086;2023-10-09T04:46:49;16.70;99.90
15765;DHT22;7983;50.744;7.086;2023-10-09T04:49:35;16.70;99.90
15765;DHT22;7983;50.744;7.086;2023-10-09T04:52:19;16.70;99.90
15765;DHT22;7983;50.744;7.086;2023-10-09T04:55:06;16.80;99.90
15765;DHT22;7983;50.744;7.086;2023-10-09T05:00:24;16.80;99.90
15765;DHT22;7983;50.744;7.086;2023-10-09T05:02:54;16.80;99.90
15765;DHT22;7983;50.744;7.086;2023-10-09T05:05:24;16.80;99.90
15765;DHT22;7983;50.744;7.086;2023-10-09T05:08:15;16.80;99.90
15765;DHT22;7983;50.744;7.086;2023-10-09T05:10:51;16.80;99.90
15765;DHT22;7983;50.744;7.086;2023-10-09T05:13:25;16.80;99.90
15765;DHT22;7983;50.744;7.086;2023-10-09T05:16:15;16.80;99.90
15765;DHT22;7983;50.744;7.086;2023-10-09T05:33:12;16.70;99.90
15765;DHT22;7983;50.744;7.086;2023-10-09T05:35:59;16.80;99.90
15765;DHT22;7983;50.744;7.086;2023-10-09T05:38:40;16.80;99.90
15765;DHT22;7983;50.744;7.086;2023-10-09T05:41:14;16.80;99.90
15765;DHT22;7983;50.744;7.086;2023-10-09T05:44:13;16.80;99.90
15765;DHT22;7983;50.744;7.086;2023-10-09T05:47:10;16.80;99.90
15765;DHT22;7983;50.744;7.086;2023-10-09T05:49:54;16.90;99.90
15765;DHT22;7983;50.744;7.086;2023-10-09T05:52:37;16.80;99.90
15765;DHT22;7983;50.744;7.086;2023-10-09T05:55:06;16.80;99.90
15765;DHT22;7983;50.744;7.086;2023-10-09T05:57:50;16.80;99.90
15765;DHT22;7983;50.744;7.086;2023-10-09T06:00:35;16.80;99.90
15765;DHT22;7983;50.744;7.086;2023-10-09T06:03:22;16.80;99.90
15765;DHT22;7983;50.744;7.086;2023-10-09T06:06:15;16.90;99.90
15765;DHT22;7983;50.744;7.086;2023-10-09T06:09:00;16.90;99.90
15765;DHT22;7983;50.744;7.086;2023-10-09T06:14:07;16.90;99.90
15765;DHT22;7983;50.744;7.086;2023-10-09T06:16:34;16.90;99.90
15765;DHT22;7983;50.744;7.086;2023-10-09T06:19:28;16.90;99.90
15765;DHT22;7983;50.744;7.086;2023-10-09T06:21:58;16.90;99.90
15765;DHT22;7983;50.744;7.086;2023-10-09T06:24:43;16.90;99.90
15765;DHT22;7983;50.744;7.086;2023-10-09T06:27:21;16.90;99.90
15765;DHT22;7983;50.744;7.086;2023-10-09T06:29:58;16.90;99.90
15765;DHT22;7983;50.744;7.086;2023-10-09T06:32:43;16.90;99.90
15765;DHT22;7983;50.744;7.086;2023-10-09T06:35:36;16.90;99.90
15765;DHT22;7983;50.744;7.086;2023-10-09T06:38:02;16.90;99.90
15765;DHT22;7983;50.744;7.086;2023-10-09T06:40:37;16.90;99.90
15765;DHT22;7983;50.744;7.086;2023-10-09T06:43:24;17.00;99.90
15765;DHT22;7983;50.744;7.086;2023-10-09T06:45:59;17.10;99.90
15765;DHT22;7983;50.744;7.086;2023-10-09T06:48:46;17.10;99.90
15765;DHT22;7983;50.744;7.086;2023-10-09T06:51:23;17.10;99.90
15765;DHT22;7983;50.744;7.086;2023-10-09T06:53:52;17.20;99.90
15765;DHT22;7983;50.744;7.086;2023-10-09T06:56:31;17.20;99.90
15765;DHT22;7983;50.744;7.086;2023-10-09T06:59:00;17.20;99.90
15765;DHT22;7983;50.744;7.086;2023-10-09T07:01:44;17.30;99.90
15765;DHT22;7983;50.744;7.086;2023-10-09T07:04:15;17.40;99.90
15765;DHT22;7983;50.744;7.086;2023-10-09T07:06:58;17.40;99.90
15765;DHT22;7983;50.744;7.086;2023-10-09T07:09:24;17.50;99.90
15765;DHT22;7983;50.744;7.086;2023-10-09T07:12:10;17.50;99.90
15765;DHT22;7983;50.744;7.086;2023-10-09T07:14:39;17.60;99.90
15765;DHT22;7983;50.744;7.086;2023-10-09T07:17:06;17.70;99.90
15765;DHT22;7983;50.744;7.086;2023-10-09T07:19:42;17.70;99.90
15765;DHT22;7983;50.744;7.086;2023-10-09T07:22:12;17.80;99.90
15765;DHT22;7983;50.744;7.086;2023-10-09T07:24:47;17.90;99.90
15765;DHT22;7983;50.744;7.086;2023-10-09T07:27:29;17.90;99.90
15765;DHT22;7983;50.744;7.086;2023-10-09T07:30:15;18.00;99.90
15765;DHT22;7983;50.744;7.086;2023-10-09T07:35:43;18.20;99.90
15765;DHT22;7983;50.744;7.086;2023-10-09T07:40:40;18.30;99.90
15765;DHT22;7983;50.744;7.086;2023-10-09T07:43:27;18.30;99.90
15765;DHT22;7983;50.744;7.086;2023-10-09T07:46:07;18.40;99.90
15765;DHT22;7983;50.744;7.086;2023-10-09T07:48:55;18.50;99.90
15765;DHT22;7983;50.744;7.086;2023-10-09T07:51:24;18.50;99.90
15765;DHT22;7983;50.744;7.086;2023-10-09T07:53:59;18.60;99.90
15765;DHT22;7983;50.744;7.086;2023-10-09T07:56:38;18.70;99.90
15765;DHT22;7983;50.744;7.086;2023-10-09T07:59:07;18.70;99.90
15765;DHT22;7983;50.744;7.086;2023-10-09T08:01:56;18.80;99.90
15765;DHT22;7983;50.744;7.086;2023-10-09T08:04:27;18.90;99.90
15765;DHT22;7983;50.744;7.086;2023-10-09T08:07:14;18.90;99.90
15765;DHT22;7983;50.744;7.086;2023-10-09T08:09:53;19.00;99.90
15765;DHT22;7983;50.744;7.086;2023-10-09T08:12:40;19.10;99.90
15765;DHT22;7983;50.744;7.086;2023-10-09T08:15:15;19.10;99.90
15765;DHT22;7983;50.744;7.086;2023-10-09T08:17:54;19.20;99.90
15765;DHT22;7983;50.744;7.086;2023-10-09T08:20:25;19.30;99.90
15765;DHT22;7983;50.744;7.086;2023-10-09T08:22:52;19.30;99.90
15765;DHT22;7983;50.744;7.086;2023-10-09T08:25:21;19.40;99.90
15765;DHT22;7983;50.744;7.086;2023-10-09T08:28:00;19.40;99.90
15765;DHT22;7983;50.744;7.086;2023-10-09T08:30:57;19.40;99.90
15765;DHT22;7983;50.744;7.086;2023-10-09T08:33:46;19.50;99.90
15765;DHT22;7983;50.744;7.086;2023-10-09T08:36:23;19.60;99.90
15765;DHT22;7983;50.744;7.086;2023-10-09T08:38:54;19.70;99.90
15765;DHT22;7983;50.744;7.086;2023-10-09T08:41:23;19.80;99.90
15765;DHT22;7983;50.744;7.086;2023-10-09T08:43:56;19.80;99.90
15765;DHT22;7983;50.744;7.086;2023-10-09T08:46:27;19.90;99.90
15765;DHT22;7983;50.744;7.086;2023-10-09T08:48:57;19.90;99.90
15765;DHT22;7983;50.744;7.086;2023-10-09T08:51:27;19.90;99.90
15765;DHT22;7983;50.744;7.086;2023-10-09T08:53:54;20.00;99.90
15765;DHT22;7983;50.744;7.086;2023-10-09T08:56:23;20.00;99.90
15765;DHT22;7983;50.744;7.086;2023-10-09T08:58:55;20.10;99.90
15765;DHT22;7983;50.744;7.086;2023-10-09T09:01:23;20.10;99.90
15765;DHT22;7983;50.744;7.086;2023-10-09T09:03:53;20.10;99.90
15765;DHT22;7983;50.744;7.086;2023-10-09T09:06:22;20.20;99.90
15765;DHT22;7983;50.744;7.086;2023-10-09T09:08:51;20.20;99.90
15765;DHT22;7983;50.744;7.086;2023-10-09T09:11:24;20.20;99.90
15765;DHT22;7983;50.744;7.086;2023-10-09T09:16:22;20.30;99.90
15765;DHT22;7983;50.744;7.086;2023-10-09T09:21:27;20.40;99.90
15765;DHT22;7983;50.744;7.086;2023-10-09T09:23:54;20.50;99.90
15765;DHT22;7983;50.744;7.086;2023-10-09T09:26:33;20.60;99.90
15765;DHT22;7983;50.744;7.086;2023-10-09T09:29:03;20.70;99.90
15765;DHT22;7983;50.744;7.086;2023-10-09T09:31:33;20.80;99.90
15765;DHT22;7983;50.744;7.086;2023-10-09T09:34:10;21.00;99.90
15765;DHT22;7983;50.744;7.086;2023-10-09T09:36:54;21.10;99.90
15765;DHT22;7983;50.744;7.086;2023-10-09T09:39:27;21.20;99.90
15765;DHT22;7983;50.744;7.086;2023-10-09T09:41:56;21.30;99.90
15765;DHT22;7983;50.744;7.086;2023-10-09T09:44:25;21.40;99.90
15765;DHT22;7983;50.744;7.086;2023-10-09T09:46:52;21.50;99.90
15765;DHT22;7983;50.744;7.086;2023-10-09T09:49:23;21.80;99.90
15765;DHT22;7983;50.744;7.086;2023-10-09T09:51:49;22.00;99.90
15765;DHT22;7983;50.744;7.086;2023-10-09T09:54:17;22.20;99.90
15765;DHT22;7983;50.744;7.086;2023-10-09T09:56:46;22.20;99.90
15765;DHT22;7983;50.744;7.086;2023-10-09T09:59:18;22.20;99.90
15765;DHT22;7983;50.744;7.086;2023-10-09T10:01:56;22.30;99.90
15765;DHT22;7983;50.744;7.086;2023-10-09T10:04:32;22.40;99.90
15765;DHT22;7983;50.744;7.086;2023-10-09T10:07:01;22.60;99.90
15765;DHT22;7983;50.744;7.086;2023-10-09T10:09:38;22.80;99.90
15765;DHT22;7983;50.744;7.086;2023-10-09T10:12:08;23.00;99.90
15765;DHT22;7983;50.744;7.086;2023-10-09T10:17:25;23.50;99.90
15765;DHT22;7983;50.744;7.086;2023-10-09T10:22:47;23.70;99.90
15765;DHT22;7983;50.744;7.086;2023-10-09T10:25:34;24.00;99.90
15765;DHT22;7983;50.744;7.086;2023-10-09T10:28:20;24.30;99.90
15765;DHT22;7983;50.744;7.086;2023-10-09T10:31:05;24.40;99.90
15765;DHT22;7983;50.744;7.086;2023-10-09T10:36:26;24.80;99.90
15765;DHT22;7983;50.744;7.086;2023-10-09T10:39:02;25.10;99.90
15765;DHT22;7983;50.744;7.086;2023-10-09T10:41:35;25.20;99.90
15765;DHT22;7983;50.744;7.086;2023-10-09T10:47:06;25.30;99.90
15765;DHT22;7983;50.744;7.086;2023-10-09T10:49:51;25.40;99.90
15765;DHT22;7983;50.744;7.086;2023-10-09T10:52:24;25.30;99.90
15765;DHT22;7983;50.744;7.086;2023-10-09T10:55:27;25.30;99.90
15765;DHT22;7983;50.744;7.086;2023-10-09T10:57:58;25.30;99.90
15765;DHT22;7983;50.744;7.086;2023-10-09T11:00:35;25.20;99.90
15765;DHT22;7983;50.744;7.086;2023-10-09T11:03:22;25.20;99.90
15765;DHT22;7983;50.744;7.086;2023-10-09T11:06:04;25.30;99.90
15765;DHT22;7983;50.744;7.086;2023-10-09T11:08:47;25.40;99.90
15765;DHT22;7983;50.744;7.086;2023-10-09T11:11:24;25.50;99.90
15765;DHT22;7983;50.744;7.086;2023-10-09T11:14:13;25.60;99.90
15765;DHT22;7983;50.744;7.086;2023-10-09T11:16:49;25.60;99.90
15765;DHT22;7983;50.744;7.086;2023-10-09T11:19:21;25.70;99.90
15765;DHT22;7983;50.744;7.086;2023-10-09T11:21:54;25.70;99.90
15765;DHT22;7983;50.744;7.086;2023-10-09T11:24:33;25.80;99.90
15765;DHT22;7983;50.744;7.086;2023-10-09T11:27:01;25.80;99.90
15765;DHT22;7983;50.744;7.086;2023-10-09T11:29:53;25.90;99.90
15765;DHT22;7983;50.744;7.086;2023-10-09T11:32:20;26.00;99.90
15765;DHT22;7983;50.744;7.086;2023-10-09T11:34:50;26.00;99.90
15765;DHT22;7983;50.744;7.086;2023-10-09T11:37:24;26.10;99.90
15765;DHT22;7983;50.744;7.086;2023-10-09T11:39:59;26.20;99.90
15765;DHT22;7983;50.744;7.086;2023-10-09T11:42:30;26.30;99.90
15765;DHT22;7983;50.744;7.086;2023-10-09T11:45:08;26.30;99.90
15765;DHT22;7983;50.744;7.086;2023-10-09T11:47:51;26.40;99.90
15765;DHT22;7983;50.744;7.086;2023-10-09T11:50:51;26.30;99.90
15765;DHT22;7983;50.744;7.086;2023-10-09T11:53:40;26.30;99.90
15765;DHT22;7983;50.744;7.086;2023-10-09T11:56:08;26.20;99.90
15765;DHT22;7983;50.744;7.086;2023-10-09T11:58:38;26.20;99.90
15765;DHT22;7983;50.744;7.086;2023-10-09T12:01:13;26.10;99.90
15765;DHT22;7983;50.744;7.086;2023-10-09T12:03:43;26.00;99.90
15765;DHT22;7983;50.744;7.086;2023-10-09T12:06:15;26.00;99.90
15765;DHT22;7983;50.744;7.086;2023-10-09T12:08:45;25.90;99.90
15765;DHT22;7983;50.744;7.086;2023-10-09T12:11:14;25.90;99.90
15765;DHT22;7983;50.744;7.086;2023-10-09T12:13:43;25.90;99.90
15765;DHT22;7983;50.744;7.086;2023-10-09T12:16:09;25.90;99.90
15765;DHT22;7983;50.744;7.086;2023-10-09T12:18:37;25.90;99.90
15765;DHT22;7983;50.744;7.086;2023-10-09T12:21:06;25.90;99.90
15765;DHT22;7983;50.744;7.086;2023-10-09T12:23:32;25.80;99.90
15765;DHT22;7983;50.744;7.086;2023-10-09T12:26:02;25.80;99.90
15765;DHT22;7983;50.744;7.086;2023-10-09T12:28:28;25.80;99.90
15765;DHT22;7983;50.744;7.086;2023-10-09T12:30:55;25.80;99.90
15765;DHT22;7983;50.744;7.086;2023-10-09T12:33:27;25.80;99.90
15765;DHT22;7983;50.744;7.086;2023-10-09T12:35:56;25.80;99.90
15765;DHT22;7983;50.744;7.086;2023-10-09T12:38:31;25.80;99.90
15765;DHT22;7983;50.744;7.086;2023-10-09T12:41:07;25.80;99.90
15765;DHT22;7983;50.744;7.086;2023-10-09T12:43:42;25.80;99.90
15765;DHT22;7983;50.744;7.086;2023-10-09T12:46:12;25.80;99.90
15765;DHT22;7983;50.744;7.086;2023-10-09T12:48:45;25.80;99.90
15765;DHT22;7983;50.744;7.086;2023-10-09T12:51:14;25.80;99.90
15765;DHT22;7983;50.744;7.086;2023-10-09T12:53:49;25.80;99.90
15765;DHT22;7983;50.744;7.086;2023-10-09T12:56:15;25.80;99.90
15765;DHT22;7983;50.744;7.086;2023-10-09T12:58:48;25.80;99.90
15765;DHT22;7983;50.744;7.086;2023-10-09T13:01:21;25.80;99.90
15765;DHT22;7983;50.744;7.086;2023-10-09T13:03:46;25.80;99.90
15765;DHT22;7983;50.744;7.086;2023-10-09T13:06:15;25.80;99.90
15765;DHT22;7983;50.744;7.086;2023-10-09T13:08:41;25.80;99.90
15765;DHT22;7983;50.744;7.086;2023-10-09T13:11:11;25.80;99.90
15765;DHT22;7983;50.744;7.086;2023-10-09T13:13:41;25.70;99.90
15765;DHT22;7983;50.744;7.086;2023-10-09T13:16:21;25.70;99.90
15765;DHT22;7983;50.744;7.086;2023-10-09T13:21:20;25.60;99.90
15765;DHT22;7983;50.744;7.086;2023-10-09T13:23:49;25.60;99.90
15765;DHT22;7983;50.744;7.086;2023-10-09T13:26:20;25.50;99.90
15765;DHT22;7983;50.744;7.086;2023-10-09T13:29:00;25.50;99.90
15765;DHT22;7983;50.744;7.086;2023-10-09T13:31:30;25.50;99.90
15765;DHT22;7983;50.744;7.086;2023-10-09T13:33:59;25.40;99.90
15765;DHT22;7983;50.744;7.086;2023-10-09T13:36:26;25.40;99.90
15765;DHT22;7983;50.744;7.086;2023-10-09T13:41:46;25.30;99.90
15765;DHT22;7983;50.744;7.086;2023-10-09T13:44:14;25.30;99.90
15765;DHT22;7983;50.744;7.086;2023-10-09T13:46:40;25.20;99.90
15765;DHT22;7983;50.744;7.086;2023-10-09T13:49:12;25.20;99.90
15765;DHT22;7983;50.744;7.086;2023-10-09T13:51:41;25.20;99.90
15765;DHT22;7983;50.744;7.086;2023-10-09T13:54:13;25.10;99.90
15765;DHT22;7983;50.744;7.086;2023-10-09T13:56:49;25.10;99.90
15765;DHT22;7983;50.744;7.086;2023-10-09T13:59:21;25.10;99.90
15765;DHT22;7983;50.744;7.086;2023-10-09T14:01:49;25.00;99.90
15765;DHT22;7983;50.744;7.086;2023-10-09T14:04:15;25.00;99.90
15765;DHT22;7983;50.744;7.086;2023-10-09T14:06:44;25.00;99.90
15765;DHT22;7983;50.744;7.086;2023-10-09T14:09:11;25.00;99.90
15765;DHT22;7983;50.744;7.086;2023-10-09T14:12:00;24.90;99.90
15765;DHT22;7983;50.744;7.086;2023-10-09T14:17:09;24.90;99.90
15765;DHT22;7983;50.744;7.086;2023-10-09T14:19:46;24.80;99.90
15765;DHT22;7983;50.744;7.086;2023-10-09T14:22:20;24.80;99.90
15765;DHT22;7983;50.744;7.086;2023-10-09T14:24:49;24.80;99.90
15765;DHT22;7983;50.744;7.086;2023-10-09T14:27:21;24.80;99.90
15765;DHT22;7983;50.744;7.086;2023-10-09T14:29:49;24.70;99.90
15765;DHT22;7983;50.744;7.086;2023-10-09T14:32:17;24.70;99.90
15765;DHT22;7983;50.744;7.086;2023-10-09T14:34:44;24.70;99.90
15765;DHT22;7983;50.744;7.086;2023-10-09T14:37:19;24.70;99.90
15765;DHT22;7983;50.744;7.086;2023-10-09T14:39:46;24.70;99.90
15765;DHT22;7983;50.744;7.086;2023-10-09T14:42:19;24.70;99.90
15765;DHT22;7983;50.744;7.086;2023-10-09T14:44:48;24.80;99.90
15765;DHT22;7983;50.744;7.086;2023-10-09T14:47:15;24.80;99.90
15765;DHT22;7983;50.744;7.086;2023-10-09T14:49:41;24.80;99.90
15765;DHT22;7983;50.744;7.086;2023-10-09T14:52:13;24.80;99.90
15765;DHT22;7983;50.744;7.086;2023-10-09T14:54:45;24.80;99.90
15765;DHT22;7983;50.744;7.086;2023-10-09T14:57:12;24.80;99.90
15765;DHT22;7983;50.744;7.086;2023-10-09T14:59:41;24.80;99.90
15765;DHT22;7983;50.744;7.086;2023-10-09T15:02:08;24.80;99.90
15765;DHT22;7983;50.744;7.086;2023-10-09T15:04:34;24.80;99.90
15765;DHT22;7983;50.744;7.086;2023-10-09T15:07:02;24.70;99.90
15765;DHT22;7983;50.744;7.086;2023-10-09T15:09:32;24.70;99.90
15765;DHT22;7983;50.744;7.086;2023-10-09T15:12:00;24.70;99.90
15765;DHT22;7983;50.744;7.086;2023-10-09T15:14:28;24.60;99.90
15765;DHT22;7983;50.744;7.086;2023-10-09T15:16:56;24.50;99.90
15765;DHT22;7983;50.744;7.086;2023-10-09T15:19:22;24.50;99.90
15765;DHT22;7983;50.744;7.086;2023-10-09T15:21:55;24.40;99.90
15765;DHT22;7983;50.744;7.086;2023-10-09T15:24:23;24.40;99.90
15765;DHT22;7983;50.744;7.086;2023-10-09T15:26:53;24.30;99.90
15765;DHT22;7983;50.744;7.086;2023-10-09T15:29:23;24.30;99.90
15765;DHT22;7983;50.744;7.086;2023-10-09T15:32:01;24.30;99.90
15765;DHT22;7983;50.744;7.086;2023-10-09T15:34:33;24.20;99.90
15765;DHT22;7983;50.744;7.086;2023-10-09T15:37:05;24.20;99.90
15765;DHT22;7983;50.744;7.086;2023-10-09T15:39:35;24.10;99.90
15765;DHT22;7983;50.744;7.086;2023-10-09T15:42:01;24.10;99.90
15765;DHT22;7983;50.744;7.086;2023-10-09T15:44:32;24.10;99.90
15765;DHT22;7983;50.744;7.086;2023-10-09T15:47:00;24.00;99.90
15765;DHT22;7983;50.744;7.086;2023-10-09T15:49:29;24.00;99.90
15765;DHT22;7983;50.744;7.086;2023-10-09T15:51:59;23.90;99.90
15765;DHT22;7983;50.744;7.086;2023-10-09T15:54:27;23.90;99.90
15765;DHT22;7983;50.744;7.086;2023-10-09T15:56:53;23.90;99.90
15765;DHT22;7983;50.744;7.086;2023-10-09T15:59:21;23.90;99.90
15765;DHT22;7983;50.744;7.086;2023-10-09T16:01:46;23.80;99.90
15765;DHT22;7983;50.744;7.086;2023-10-09T16:04:12;23.80;99.90
15765;DHT22;7983;50.744;7.086;2023-10-09T16:06:40;23.80;99.90
15765;DHT22;7983;50.744;7.086;2023-10-09T16:09:08;23.80;99.90
15765;DHT22;7983;50.744;7.086;2023-10-09T16:11:38;23.70;99.90
15765;DHT22;7983;50.744;7.086;2023-10-09T16:14:05;23.60;99.90
15765;DHT22;7983;50.744;7.086;2023-10-09T16:16:35;23.60;99.90
15765;DHT22;7983;50.744;7.086;2023-10-09T16:19:10;23.50;99.90
15765;DHT22;7983;50.744;7.086;2023-10-09T16:21:38;23.40;99.90
15765;DHT22;7983;50.744;7.086;2023-10-09T16:24:07;23.40;99.90
15765;DHT22;7983;50.744;7.086;2023-10-09T16:26:35;23.30;99.90
15765;DHT22;7983;50.744;7.086;2023-10-09T16:29:11;23.20;99.90
15765;DHT22;7983;50.744;7.086;2023-10-09T16:31:38;23.10;99.90
15765;DHT22;7983;50.744;7.086;2023-10-09T16:34:08;23.00;99.90
15765;DHT22;7983;50.744;7.086;2023-10-09T16:36:35;23.00;99.90
15765;DHT22;7983;50.744;7.086;2023-10-09T16:39:05;22.90;99.90
15765;DHT22;7983;50.744;7.086;2023-10-09T16:41:49;22.80;99.90
15765;DHT22;7983;50.744;7.086;2023-10-09T16:44:19;22.70;99.90
15765;DHT22;7983;50.744;7.086;2023-10-09T16:46:45;22.70;99.90
15765;DHT22;7983;50.744;7.086;2023-10-09T16:49:16;22.60;99.90
15765;DHT22;7983;50.744;7.086;2023-10-09T16:51:44;22.60;99.90
15765;DHT22;7983;50.744;7.086;2023-10-09T16:54:12;22.50;99.90
15765;DHT22;7983;50.744;7.086;2023-10-09T16:56:43;22.40;99.90
15765;DHT22;7983;50.744;7.086;2023-10-09T16:59:10;22.30;99.90
15765;DHT22;7983;50.744;7.086;2023-10-09T17:01:40;22.30;99.90
15765;DHT22;7983;50.744;7.086;2023-10-09T17:04:09;22.20;99.90
15765;DHT22;7983;50.744;7.086;2023-10-09T17:06:37;22.10;99.90
15765;DHT22;7983;50.744;7.086;2023-10-09T17:09:08;22.10;99.90
15765;DHT22;7983;50.744;7.086;2023-10-09T17:11:36;22.00;99.90
15765;DHT22;7983;50.744;7.086;2023-10-09T17:14:02;22.00;99.90
15765;DHT22;7983;50.744;7.086;2023-10-09T17:16:34;21.90;99.90